createdAt,value
2017-07-17T00:00:44.719Z,22.99
2017-07-17T00:01:45.363Z,22.98
2017-07-17T00:02:46.004Z,23.05
2017-07-17T00:03:46.637Z,23.08
2017-07-17T00:04:47.273Z,23.00
2017-07-17T00:05:47.910Z,23.03
2017-07-17T00:06:48.554Z,23.02
2017-07-17T00:07:49.187Z,23.06
2017-07-17T00:08:50.025Z,22.96
2017-07-17T00:09:50.670Z,23.05
2017-07-17T00:10:51.311Z,22.98
2017-07-17T00:11:52.006Z,23.03
2017-07-17T00:12:52.641Z,23.03
2017-07-17T00:13:53.278Z,23.06
2017-07-17T00:14:53.916Z,23.06
2017-07-17T00:15:54.560Z,23.05
2017-07-17T00:16:55.443Z,23.05
2017-07-17T00:17:56.082Z,23.02
2017-07-17T00:18:56.718Z,23.00
2017-07-17T00:19:57.355Z,23.03
2017-07-17T00:20:57.993Z,23.05
2017-07-17T00:21:58.631Z,23.02
2017-07-17T00:22:59.276Z,23.03
2017-07-17T00:23:59.908Z,23.05
2017-07-17T00:25:00.746Z,23.05
2017-07-17T00:26:01.490Z,23.00
2017-07-17T00:27:02.126Z,23.00
2017-07-17T00:28:02.766Z,22.98
2017-07-17T00:29:03.401Z,22.94
2017-07-17T00:30:04.043Z,22.94
2017-07-17T00:31:04.677Z,22.96
2017-07-17T00:32:05.315Z,22.98
2017-07-17T00:33:06.157Z,22.94
2017-07-17T00:34:06.798Z,23.00
2017-07-17T00:35:07.439Z,22.98
2017-07-17T00:36:08.073Z,22.94
2017-07-17T00:37:08.710Z,22.93
2017-07-17T00:38:09.348Z,23.00
2017-07-17T00:39:09.996Z,22.91
2017-07-17T00:40:10.625Z,22.91
2017-07-17T00:41:11.264Z,22.91
2017-07-17T00:42:12.050Z,22.83
2017-07-17T00:43:12.694Z,22.96
2017-07-17T00:44:13.333Z,22.85
2017-07-17T00:45:13.976Z,22.91
2017-07-17T00:46:14.618Z,22.93
2017-07-17T00:47:15.256Z,22.90
2017-07-17T00:48:15.896Z,22.96
2017-07-17T00:49:16.539Z,22.94
2017-07-17T00:50:17.370Z,22.94
2017-07-17T00:51:18.009Z,22.91
2017-07-17T00:52:18.656Z,22.85
2017-07-17T00:53:19.292Z,22.85
2017-07-17T00:54:19.934Z,22.87
2017-07-17T00:55:20.570Z,22.88
2017-07-17T00:56:21.209Z,22.90
2017-07-17T00:57:21.850Z,22.96
2017-07-17T00:58:22.685Z,22.90
2017-07-17T00:59:23.322Z,22.96
2017-07-17T01:00:23.958Z,22.90
2017-07-17T01:01:24.597Z,22.81
2017-07-17T01:02:25.235Z,22.85
2017-07-17T01:03:25.872Z,22.94
2017-07-17T01:04:26.507Z,22.91
2017-07-17T01:05:27.146Z,22.90
2017-07-17T01:06:27.988Z,22.88
2017-07-17T01:07:28.629Z,22.83
2017-07-17T01:08:29.265Z,22.88
2017-07-17T01:09:29.905Z,22.93
2017-07-17T01:10:30.540Z,22.87
2017-07-17T01:11:31.183Z,22.88
2017-07-17T01:12:31.817Z,22.90
2017-07-17T01:13:32.456Z,22.85
2017-07-17T01:14:33.198Z,22.83
2017-07-17T01:15:33.835Z,22.87
2017-07-17T01:16:34.477Z,22.85
2017-07-17T01:17:35.112Z,22.84
2017-07-17T01:18:35.751Z,22.85
2017-07-17T01:19:36.387Z,22.85
2017-07-17T01:20:37.025Z,22.85
2017-07-17T01:21:37.666Z,22.87
2017-07-17T01:22:38.302Z,22.85
2017-07-17T01:23:39.086Z,22.87
2017-07-17T01:24:39.732Z,22.83
2017-07-17T01:25:40.321Z,22.85
2017-07-17T01:26:40.957Z,22.88
2017-07-17T01:27:41.594Z,22.88
2017-07-17T01:28:42.234Z,22.88
2017-07-17T01:29:42.875Z,22.84
2017-07-17T01:30:43.510Z,22.90
2017-07-17T01:31:44.346Z,22.84
2017-07-17T01:32:44.989Z,22.87
2017-07-17T01:33:45.623Z,22.88
2017-07-17T01:34:46.264Z,22.88
2017-07-17T01:35:46.906Z,22.83
2017-07-17T01:36:47.541Z,22.80
2017-07-17T01:37:48.184Z,22.85
2017-07-17T01:38:48.829Z,22.81
2017-07-17T01:39:49.615Z,22.78
2017-07-17T01:40:50.250Z,22.81
2017-07-17T01:41:50.893Z,22.84
2017-07-17T01:42:51.534Z,22.84
2017-07-17T01:43:52.173Z,22.76
2017-07-17T01:44:52.806Z,22.76
2017-07-17T01:45:53.442Z,22.75
2017-07-17T01:46:54.093Z,22.75
2017-07-17T01:47:54.930Z,22.78
2017-07-17T01:48:55.565Z,22.78
2017-07-17T01:49:56.206Z,22.76
2017-07-17T01:50:56.842Z,22.73
2017-07-17T01:51:57.482Z,22.72
2017-07-17T01:52:58.124Z,22.68
2017-07-17T01:53:58.757Z,22.75
2017-07-17T01:54:59.402Z,22.70
2017-07-17T01:56:00.033Z,22.70
2017-07-17T01:57:00.976Z,22.73
2017-07-17T01:58:01.616Z,22.76
2017-07-17T01:59:02.256Z,22.75
2017-07-17T02:00:02.898Z,22.78
2017-07-17T02:01:03.535Z,22.72
2017-07-17T02:02:04.172Z,22.75
2017-07-17T02:03:04.807Z,22.72
2017-07-17T02:04:05.444Z,22.69
2017-07-17T02:05:06.282Z,22.73
2017-07-17T02:06:06.918Z,22.72
2017-07-17T02:07:07.556Z,22.72
2017-07-17T02:08:08.194Z,22.65
2017-07-17T02:09:08.832Z,22.69
2017-07-17T02:10:09.473Z,22.72
2017-07-17T02:11:10.108Z,22.69
2017-07-17T02:12:10.751Z,22.73
2017-07-17T02:13:11.586Z,22.68
2017-07-17T02:14:12.226Z,22.70
2017-07-17T02:15:12.868Z,22.73
2017-07-17T02:16:13.513Z,22.72
2017-07-17T02:17:14.146Z,22.69
2017-07-17T02:18:14.789Z,22.72
2017-07-17T02:19:15.424Z,22.72
2017-07-17T02:20:16.060Z,22.70
2017-07-17T02:21:16.847Z,22.68
2017-07-17T02:22:17.484Z,22.69
2017-07-17T02:23:18.127Z,22.69
2017-07-17T02:24:18.766Z,22.69
2017-07-17T02:25:19.402Z,22.73
2017-07-17T02:26:20.042Z,22.69
2017-07-17T02:27:20.682Z,22.73
2017-07-17T02:28:21.327Z,22.76
2017-07-17T02:29:21.960Z,22.72
2017-07-17T02:30:22.801Z,22.70
2017-07-17T02:31:23.435Z,22.69
2017-07-17T02:32:24.077Z,22.68
2017-07-17T02:33:24.668Z,22.68
2017-07-17T02:34:25.303Z,22.72
2017-07-17T02:35:25.945Z,22.68
2017-07-17T02:36:26.587Z,22.70
2017-07-17T02:37:27.233Z,22.68
2017-07-17T02:38:28.063Z,22.72
2017-07-17T02:39:28.699Z,22.65
2017-07-17T02:40:29.339Z,22.69
2017-07-17T02:41:29.981Z,22.69
2017-07-17T02:42:30.619Z,22.68
2017-07-17T02:43:31.261Z,22.66
2017-07-17T02:44:31.894Z,22.69
2017-07-17T02:45:32.533Z,22.66
2017-07-17T02:46:33.381Z,22.69
2017-07-17T02:47:34.023Z,22.60
2017-07-17T02:48:34.662Z,22.70
2017-07-17T02:49:35.299Z,22.69
2017-07-17T02:50:35.939Z,22.68
2017-07-17T02:51:36.574Z,22.62
2017-07-17T02:52:37.208Z,22.63
2017-07-17T02:53:37.845Z,22.65
2017-07-17T02:54:38.637Z,22.66
2017-07-17T02:55:39.271Z,22.68
2017-07-17T02:56:39.913Z,22.66
2017-07-17T02:57:40.554Z,22.62
2017-07-17T02:58:41.189Z,22.63
2017-07-17T02:59:41.827Z,22.65
2017-07-17T03:00:42.464Z,22.60
2017-07-17T03:01:43.101Z,22.60
2017-07-17T03:02:43.941Z,22.60
2017-07-17T03:03:44.576Z,22.59
2017-07-17T03:04:45.212Z,22.66
2017-07-17T03:05:45.856Z,22.62
2017-07-17T03:06:46.491Z,22.60
2017-07-17T03:07:47.127Z,22.63
2017-07-17T03:08:47.763Z,22.65
2017-07-17T03:09:48.403Z,22.62
2017-07-17T03:10:49.044Z,22.59
2017-07-17T03:11:49.978Z,22.62
2017-07-17T03:12:50.619Z,22.60
2017-07-17T03:13:51.259Z,22.65
2017-07-17T03:14:51.900Z,22.60
2017-07-17T03:15:52.544Z,22.63
2017-07-17T03:16:53.173Z,22.63
2017-07-17T03:17:53.814Z,22.63
2017-07-17T03:18:54.456Z,22.62
2017-07-17T03:19:55.241Z,22.59
2017-07-17T03:20:55.880Z,22.60
2017-07-17T03:21:56.517Z,22.59
2017-07-17T03:22:57.159Z,22.59
2017-07-17T03:23:57.800Z,22.57
2017-07-17T03:24:58.434Z,22.57
2017-07-17T03:25:59.072Z,22.62
2017-07-17T03:26:59.708Z,22.63
2017-07-17T03:28:00.549Z,22.57
2017-07-17T03:29:01.184Z,22.65
2017-07-17T03:30:01.821Z,22.51
2017-07-17T03:31:02.469Z,22.59
2017-07-17T03:32:03.110Z,22.66
2017-07-17T03:33:03.748Z,22.60
2017-07-17T03:34:04.390Z,22.62
2017-07-17T03:35:05.024Z,22.50
2017-07-17T03:36:05.809Z,22.59
2017-07-17T03:37:06.451Z,22.51
2017-07-17T03:38:07.084Z,22.50
2017-07-17T03:39:07.723Z,22.57
2017-07-17T03:40:08.366Z,22.59
2017-07-17T03:41:09.007Z,22.54
2017-07-17T03:42:09.645Z,22.54
2017-07-17T03:43:10.280Z,22.51
2017-07-17T03:44:10.934Z,22.50
2017-07-17T03:45:11.764Z,22.51
2017-07-17T03:46:12.399Z,22.53
2017-07-17T03:47:13.035Z,22.50
2017-07-17T03:48:13.686Z,22.63
2017-07-17T03:49:14.315Z,22.62
2017-07-17T03:50:14.955Z,22.59
2017-07-17T03:51:15.594Z,22.59
2017-07-17T03:52:16.235Z,22.48
2017-07-17T03:53:17.077Z,22.57
2017-07-17T03:54:17.721Z,22.57
2017-07-17T03:55:18.356Z,22.51
2017-07-17T03:56:18.990Z,22.51
2017-07-17T03:57:19.633Z,22.51
2017-07-17T03:58:20.272Z,22.51
2017-07-17T03:59:20.903Z,22.50
2017-07-17T04:00:21.543Z,22.45
2017-07-17T04:01:22.380Z,22.48
2017-07-17T04:02:23.019Z,22.48
2017-07-17T04:03:23.656Z,22.54
2017-07-17T04:04:24.298Z,22.50
2017-07-17T04:05:24.934Z,22.53
2017-07-17T04:06:25.570Z,22.51
2017-07-17T04:07:26.216Z,22.45
2017-07-17T04:08:26.847Z,22.54
2017-07-17T04:09:27.633Z,22.45
2017-07-17T04:10:28.270Z,22.48
2017-07-17T04:11:28.912Z,22.51
2017-07-17T04:12:29.548Z,22.50
2017-07-17T04:13:30.186Z,22.44
2017-07-17T04:14:30.821Z,22.57
2017-07-17T04:15:31.471Z,22.48
2017-07-17T04:16:32.108Z,22.51
2017-07-17T04:17:32.948Z,22.43
2017-07-17T04:18:33.592Z,22.43
2017-07-17T04:19:34.228Z,22.48
2017-07-17T04:20:34.860Z,22.41
2017-07-17T04:21:35.501Z,22.43
2017-07-17T04:22:36.139Z,22.41
2017-07-17T04:23:36.780Z,22.43
2017-07-17T04:24:37.414Z,22.33
2017-07-17T04:25:38.058Z,22.33
2017-07-17T04:26:38.893Z,22.41
2017-07-17T04:27:39.529Z,22.41
2017-07-17T04:28:40.169Z,22.44
2017-07-17T04:29:40.807Z,22.39
2017-07-17T04:30:41.442Z,22.38
2017-07-17T04:31:42.088Z,22.44
2017-07-17T04:32:42.720Z,22.45
2017-07-17T04:33:43.356Z,22.47
2017-07-17T04:34:44.198Z,22.39
2017-07-17T04:35:44.845Z,22.39
2017-07-17T04:36:45.482Z,22.41
2017-07-17T04:37:46.116Z,22.38
2017-07-17T04:38:46.764Z,22.39
2017-07-17T04:39:47.395Z,22.43
2017-07-17T04:40:48.031Z,22.39
2017-07-17T04:41:48.673Z,22.44
2017-07-17T04:42:49.461Z,22.54
2017-07-17T04:43:50.102Z,22.45
2017-07-17T04:44:50.737Z,22.47
2017-07-17T04:45:51.380Z,22.51
2017-07-17T04:46:52.023Z,22.41
2017-07-17T04:47:52.653Z,22.41
2017-07-17T04:48:53.295Z,22.36
2017-07-17T04:49:53.928Z,22.39
2017-07-17T04:50:54.765Z,22.38
2017-07-17T04:51:55.403Z,22.33
2017-07-17T04:52:56.040Z,22.44
2017-07-17T04:53:56.675Z,22.43
2017-07-17T04:54:57.313Z,22.39
2017-07-17T04:55:57.955Z,22.41
2017-07-17T04:56:58.599Z,22.43
2017-07-17T04:57:59.236Z,22.41
2017-07-17T04:58:59.873Z,22.48
2017-07-17T05:00:00.708Z,22.43
2017-07-17T05:01:01.350Z,22.44
2017-07-17T05:02:01.984Z,22.51
2017-07-17T05:03:02.619Z,22.41
2017-07-17T05:04:03.257Z,22.44
2017-07-17T05:05:03.892Z,22.47
2017-07-17T05:06:04.533Z,22.36
2017-07-17T05:07:05.174Z,22.43
2017-07-17T05:08:06.117Z,22.44
2017-07-17T05:09:06.753Z,22.44
2017-07-17T05:10:07.388Z,22.38
2017-07-17T05:11:08.026Z,22.44
2017-07-17T05:12:08.663Z,22.33
2017-07-17T05:13:09.301Z,22.43
2017-07-17T05:14:09.935Z,22.41
2017-07-17T05:15:10.573Z,22.43
2017-07-17T05:16:11.414Z,22.38
2017-07-17T05:17:12.051Z,22.36
2017-07-17T05:18:12.692Z,22.32
2017-07-17T05:19:13.326Z,22.45
2017-07-17T05:20:13.961Z,22.43
2017-07-17T05:21:14.610Z,22.35
2017-07-17T05:22:15.247Z,22.33
2017-07-17T05:23:15.884Z,22.36
2017-07-17T05:24:16.719Z,22.38
2017-07-17T05:25:17.364Z,22.35
2017-07-17T05:26:18.008Z,22.39
2017-07-17T05:27:18.638Z,22.41
2017-07-17T05:28:19.274Z,22.44
2017-07-17T05:29:19.914Z,22.38
2017-07-17T05:30:20.551Z,22.45
2017-07-17T05:31:21.192Z,22.41
2017-07-17T05:32:22.081Z,22.35
2017-07-17T05:33:22.717Z,22.45
2017-07-17T05:34:23.365Z,22.44
2017-07-17T05:35:23.997Z,22.43
2017-07-17T05:36:24.633Z,22.35
2017-07-17T05:37:25.268Z,22.44
2017-07-17T05:38:25.909Z,22.44
2017-07-17T05:39:26.540Z,22.44
2017-07-17T05:40:27.181Z,22.44
2017-07-17T05:41:28.073Z,22.35
2017-07-17T05:42:28.712Z,22.36
2017-07-17T05:43:29.355Z,22.43
2017-07-17T05:44:29.985Z,22.38
2017-07-17T05:45:30.623Z,22.41
2017-07-17T05:46:31.265Z,22.43
2017-07-17T05:47:31.903Z,22.53
2017-07-17T05:48:32.548Z,22.50
2017-07-17T05:49:33.382Z,22.47
2017-07-17T05:50:34.022Z,22.47
2017-07-17T05:51:34.663Z,22.45
2017-07-17T05:52:35.303Z,22.53
2017-07-17T05:53:35.940Z,22.47
2017-07-17T05:54:36.577Z,22.43
2017-07-17T05:55:37.213Z,22.44
2017-07-17T05:56:37.855Z,22.44
2017-07-17T05:57:38.940Z,22.41
2017-07-17T05:58:39.583Z,22.48
2017-07-17T05:59:40.222Z,22.44
2017-07-17T06:00:40.872Z,22.53
2017-07-17T06:01:41.506Z,22.48
2017-07-17T06:02:42.143Z,22.53
2017-07-17T06:03:42.777Z,22.50
2017-07-17T06:04:43.414Z,22.50
2017-07-17T06:05:44.262Z,22.50
2017-07-17T06:06:44.891Z,22.47
2017-07-17T06:07:45.529Z,22.48
2017-07-17T06:08:46.166Z,22.53
2017-07-17T06:09:46.805Z,22.47
2017-07-17T06:10:47.438Z,22.50
2017-07-17T06:11:48.076Z,22.50
2017-07-17T06:12:49.218Z,22.53
2017-07-17T06:13:49.851Z,22.48
2017-07-17T06:14:50.641Z,22.53
2017-07-17T06:15:51.277Z,22.48
2017-07-17T06:16:51.915Z,22.51
2017-07-17T06:17:52.556Z,22.55
2017-07-17T06:18:53.190Z,22.57
2017-07-17T06:19:53.824Z,22.55
2017-07-17T06:20:54.462Z,22.57
2017-07-17T06:21:55.099Z,22.55
2017-07-17T06:22:55.938Z,22.47
2017-07-17T06:23:56.577Z,22.54
2017-07-17T06:24:57.219Z,22.50
2017-07-17T06:25:57.858Z,22.47
2017-07-17T06:26:58.495Z,22.47
2017-07-17T06:27:59.136Z,22.51
2017-07-17T06:28:59.782Z,22.51
2017-07-17T06:30:00.413Z,22.55
2017-07-17T06:31:01.208Z,22.51
2017-07-17T06:32:01.839Z,22.54
2017-07-17T06:33:02.487Z,22.50
2017-07-17T06:34:03.125Z,22.51
2017-07-17T06:35:03.761Z,22.54
2017-07-17T06:36:04.406Z,22.48
2017-07-17T06:37:05.043Z,22.53
2017-07-17T06:38:05.678Z,22.55
2017-07-17T06:39:06.514Z,22.47
2017-07-17T06:40:07.149Z,22.48
2017-07-17T06:41:07.786Z,22.47
2017-07-17T06:42:08.424Z,22.47
2017-07-17T06:43:09.063Z,22.51
2017-07-17T06:44:09.699Z,22.48
2017-07-17T06:45:10.336Z,22.50
2017-07-17T06:46:10.975Z,22.50
2017-07-17T06:47:11.763Z,22.50
2017-07-17T06:48:12.400Z,22.50
2017-07-17T06:49:13.037Z,22.51
2017-07-17T06:50:13.674Z,22.53
2017-07-17T06:51:14.312Z,22.59
2017-07-17T06:52:14.950Z,22.48
2017-07-17T06:53:15.594Z,22.53
2017-07-17T06:54:16.239Z,22.57
2017-07-17T06:55:16.871Z,22.51
2017-07-17T06:56:17.710Z,22.54
2017-07-17T06:57:18.359Z,22.51
2017-07-17T06:58:18.985Z,22.57
2017-07-17T06:59:19.628Z,22.55
2017-07-17T07:00:20.266Z,22.54
2017-07-17T07:01:20.900Z,22.47
2017-07-17T07:02:21.539Z,22.57
2017-07-17T07:03:22.179Z,22.55
2017-07-17T07:04:22.967Z,22.53
2017-07-17T07:05:23.611Z,22.48
2017-07-17T07:06:24.253Z,22.50
2017-07-17T07:07:24.887Z,22.50
2017-07-17T07:08:25.525Z,22.48
2017-07-17T07:09:26.161Z,22.48
2017-07-17T07:10:26.804Z,22.50
2017-07-17T07:11:27.437Z,22.54
2017-07-17T07:12:28.326Z,22.47
2017-07-17T07:13:28.961Z,22.48
2017-07-17T07:14:29.605Z,22.48
2017-07-17T07:15:30.244Z,22.50
2017-07-17T07:16:30.876Z,22.50
2017-07-17T07:17:31.520Z,22.48
2017-07-17T07:18:32.159Z,22.43
2017-07-17T07:19:32.799Z,22.43
2017-07-17T07:20:33.641Z,22.43
2017-07-17T07:21:34.275Z,22.41
2017-07-17T07:22:34.924Z,22.43
2017-07-17T07:23:35.554Z,22.41
2017-07-17T07:24:36.187Z,22.44
2017-07-17T07:25:36.825Z,22.38
2017-07-17T07:26:37.467Z,22.38
2017-07-17T07:27:38.106Z,22.43
2017-07-17T07:28:38.744Z,22.44
2017-07-17T07:29:39.678Z,22.39
2017-07-17T07:30:40.314Z,22.43
2017-07-17T07:31:40.952Z,22.44
2017-07-17T07:32:41.623Z,22.36
2017-07-17T07:33:42.233Z,22.35
2017-07-17T07:34:42.867Z,22.44
2017-07-17T07:35:43.516Z,22.51
2017-07-17T07:36:44.151Z,22.43
2017-07-17T07:37:45.089Z,22.50
2017-07-17T07:38:45.729Z,22.45
2017-07-17T07:39:46.368Z,22.38
2017-07-17T07:40:47.007Z,22.47
2017-07-17T07:41:47.647Z,22.44
2017-07-17T07:42:48.281Z,22.43
2017-07-17T07:43:48.918Z,22.48
2017-07-17T07:44:49.561Z,22.60
2017-07-17T07:45:50.394Z,22.60
2017-07-17T07:46:51.032Z,22.63
2017-07-17T07:47:51.675Z,22.63
2017-07-17T07:48:52.310Z,22.59
2017-07-17T07:49:52.949Z,22.63
2017-07-17T07:50:53.584Z,22.55
2017-07-17T07:51:54.222Z,22.60
2017-07-17T07:52:54.862Z,22.62
2017-07-17T07:53:55.649Z,22.72
2017-07-17T07:54:56.287Z,22.63
2017-07-17T07:55:56.923Z,22.62
2017-07-17T07:56:57.566Z,22.66
2017-07-17T07:57:58.199Z,22.66
2017-07-17T07:58:58.838Z,22.66
2017-07-17T07:59:59.475Z,22.70
2017-07-17T08:01:00.114Z,22.72
2017-07-17T08:02:00.961Z,22.68
2017-07-17T08:03:01.593Z,22.70
2017-07-17T08:04:02.239Z,22.69
2017-07-17T08:05:02.882Z,22.72
2017-07-17T08:06:03.569Z,22.73
2017-07-17T08:07:04.211Z,22.70
2017-07-17T08:08:04.846Z,22.70
2017-07-17T08:09:05.489Z,22.72
2017-07-17T08:10:06.124Z,22.72
2017-07-17T08:11:06.967Z,22.72
2017-07-17T08:12:07.602Z,22.75
2017-07-17T08:13:08.240Z,22.76
2017-07-17T08:14:08.875Z,22.75
2017-07-17T08:15:09.518Z,22.73
2017-07-17T08:16:10.156Z,22.72
2017-07-17T08:17:10.791Z,22.69
2017-07-17T08:18:11.377Z,22.70
2017-07-17T08:19:12.221Z,22.80
2017-07-17T08:20:12.856Z,22.72
2017-07-17T08:21:13.492Z,22.76
2017-07-17T08:22:14.140Z,22.76
2017-07-17T08:23:14.775Z,22.73
2017-07-17T08:24:15.420Z,22.83
2017-07-17T08:25:16.056Z,22.72
2017-07-17T08:26:16.695Z,22.81
2017-07-17T08:27:17.480Z,22.75
2017-07-17T08:28:18.135Z,22.81
2017-07-17T08:29:18.765Z,22.78
2017-07-17T08:30:19.406Z,22.78
2017-07-17T08:31:20.045Z,22.73
2017-07-17T08:32:20.684Z,22.75
2017-07-17T08:33:21.324Z,22.78
2017-07-17T08:34:21.959Z,22.76
2017-07-17T08:35:22.895Z,22.78
2017-07-17T08:36:23.533Z,22.78
2017-07-17T08:37:24.170Z,22.78
2017-07-17T08:38:24.808Z,22.80
2017-07-17T08:39:25.444Z,22.80
2017-07-17T08:40:26.080Z,22.80
2017-07-17T08:41:26.717Z,22.85
2017-07-17T08:42:27.363Z,22.85
2017-07-17T08:43:28.008Z,22.90
2017-07-17T08:44:28.844Z,22.87
2017-07-17T08:45:29.479Z,22.81
2017-07-17T08:46:30.117Z,22.88
2017-07-17T08:47:30.759Z,22.81
2017-07-17T08:48:31.395Z,22.83
2017-07-17T08:49:32.035Z,22.88
2017-07-17T08:50:32.673Z,22.83
2017-07-17T08:51:33.314Z,22.84
2017-07-17T08:52:34.098Z,22.87
2017-07-17T08:53:34.734Z,22.84
2017-07-17T08:54:35.373Z,22.84
2017-07-17T08:55:36.018Z,22.84
2017-07-17T08:56:36.658Z,22.87
2017-07-17T08:57:37.294Z,22.83
2017-07-17T08:58:37.938Z,22.91
2017-07-17T08:59:38.575Z,22.84
2017-07-17T09:00:39.412Z,22.83
2017-07-17T09:01:40.049Z,22.84
2017-07-17T09:02:40.692Z,22.85
2017-07-17T09:03:41.326Z,22.87
2017-07-17T09:04:41.966Z,22.85
2017-07-17T09:05:42.605Z,22.84
2017-07-17T09:06:43.247Z,22.83
2017-07-17T09:07:43.888Z,22.83
2017-07-17T09:08:44.727Z,22.84
2017-07-17T09:09:45.378Z,22.85
2017-07-17T09:10:46.004Z,22.87
2017-07-17T09:11:46.642Z,22.85
2017-07-17T09:12:47.285Z,22.83
2017-07-17T09:13:47.921Z,22.87
2017-07-17T09:14:48.560Z,22.87
2017-07-17T09:15:49.203Z,22.84
2017-07-17T09:16:49.989Z,22.85
2017-07-17T09:17:50.578Z,22.84
2017-07-17T09:18:51.217Z,22.85
2017-07-17T09:19:51.863Z,22.83
2017-07-17T09:20:52.504Z,22.85
2017-07-17T09:21:53.139Z,22.88
2017-07-17T09:22:53.786Z,22.84
2017-07-17T09:23:54.425Z,22.87
2017-07-17T09:24:55.061Z,22.91
2017-07-17T09:25:55.902Z,22.88
2017-07-17T09:26:56.593Z,22.85
2017-07-17T09:27:57.238Z,22.94
2017-07-17T09:28:57.874Z,22.98
2017-07-17T09:29:58.518Z,22.96
2017-07-17T09:30:59.153Z,22.94
2017-07-17T09:31:59.792Z,22.94
2017-07-17T09:33:00.478Z,22.91
2017-07-17T09:34:01.321Z,22.96
2017-07-17T09:35:01.963Z,22.85
2017-07-17T09:36:02.605Z,22.96
2017-07-17T09:37:03.245Z,22.98
2017-07-17T09:38:03.886Z,22.94
2017-07-17T09:39:04.529Z,22.99
2017-07-17T09:40:05.165Z,22.93
2017-07-17T09:41:05.801Z,22.96
2017-07-17T09:42:06.647Z,22.76
2017-07-17T09:43:07.288Z,22.88
2017-07-17T09:44:07.930Z,22.93
2017-07-17T09:45:08.572Z,23.00
2017-07-17T09:46:09.215Z,23.05
2017-07-17T09:47:09.864Z,23.05
2017-07-17T09:48:10.503Z,23.13
2017-07-17T09:49:11.147Z,23.20
2017-07-17T09:50:11.996Z,23.20
2017-07-17T09:51:12.643Z,23.39
2017-07-17T09:52:13.285Z,23.39
2017-07-17T09:53:13.924Z,23.43
2017-07-17T09:54:14.571Z,23.58
2017-07-17T09:55:15.211Z,23.61
2017-07-17T09:56:15.854Z,23.71
2017-07-17T09:57:16.504Z,23.68
2017-07-17T09:58:17.145Z,23.77
2017-07-17T09:59:17.986Z,23.77
2017-07-17T10:00:18.629Z,23.71
2017-07-17T10:01:19.275Z,23.77
2017-07-17T10:02:19.918Z,23.74
2017-07-17T10:03:20.566Z,23.81
2017-07-17T10:04:21.205Z,23.81
2017-07-17T10:05:21.849Z,23.81
2017-07-17T10:06:22.440Z,23.84
2017-07-17T10:07:23.285Z,23.86
2017-07-17T10:08:23.930Z,23.84
2017-07-17T10:09:24.574Z,23.91
2017-07-17T10:10:25.218Z,23.93
2017-07-17T10:11:25.860Z,23.86
2017-07-17T10:12:26.509Z,23.87
2017-07-17T10:13:27.156Z,23.88
2017-07-17T10:14:27.801Z,23.95
2017-07-17T10:15:28.643Z,23.96
2017-07-17T10:16:29.289Z,23.91
2017-07-17T10:17:29.929Z,23.88
2017-07-17T10:18:30.571Z,23.91
2017-07-17T10:19:31.213Z,23.93
2017-07-17T10:20:31.858Z,23.95
2017-07-17T10:21:32.501Z,23.96
2017-07-17T10:22:33.149Z,23.96
2017-07-17T10:23:33.938Z,23.92
2017-07-17T10:24:34.589Z,23.95
2017-07-17T10:25:35.239Z,23.98
2017-07-17T10:26:35.872Z,23.99
2017-07-17T10:27:36.519Z,23.96
2017-07-17T10:28:37.160Z,24.02
2017-07-17T10:29:37.800Z,24.01
2017-07-17T10:30:38.452Z,24.01
2017-07-17T10:31:39.306Z,24.02
2017-07-17T10:32:39.955Z,23.99
2017-07-17T10:33:40.591Z,24.03
2017-07-17T10:34:41.241Z,24.03
2017-07-17T10:35:41.881Z,24.06
2017-07-17T10:36:42.522Z,24.06
2017-07-17T10:37:43.167Z,24.08
2017-07-17T10:38:43.816Z,24.08
2017-07-17T10:39:44.518Z,24.11
2017-07-17T10:40:45.306Z,24.06
2017-07-17T10:41:45.956Z,24.17
2017-07-17T10:42:46.603Z,24.18
2017-07-17T10:43:47.246Z,24.20
2017-07-17T10:44:47.890Z,24.14
2017-07-17T10:45:48.539Z,24.26
2017-07-17T10:46:49.182Z,24.21
2017-07-17T10:47:49.826Z,24.24
2017-07-17T10:48:50.975Z,24.24
2017-07-17T10:49:51.615Z,24.29
2017-07-17T10:50:52.265Z,24.24
2017-07-17T10:51:52.916Z,24.29
2017-07-17T10:52:53.560Z,24.21
2017-07-17T10:53:54.212Z,24.24
2017-07-17T10:54:54.857Z,24.32
2017-07-17T10:55:55.504Z,24.38
2017-07-17T10:56:56.596Z,24.39
2017-07-17T10:57:57.251Z,24.36
2017-07-17T10:58:57.901Z,24.40
2017-07-17T10:59:58.539Z,24.39
2017-07-17T11:00:59.184Z,24.38
2017-07-17T11:01:59.833Z,24.40
2017-07-17T11:03:00.474Z,24.38
2017-07-17T11:04:01.120Z,24.40
2017-07-17T11:05:01.965Z,24.38
2017-07-17T11:06:02.610Z,24.45
2017-07-17T11:07:03.253Z,24.50
2017-07-17T11:08:03.897Z,24.42
2017-07-17T11:09:04.547Z,24.43
2017-07-17T11:10:05.192Z,24.50
2017-07-17T11:11:05.836Z,24.55
2017-07-17T11:12:06.479Z,24.43
2017-07-17T11:13:07.128Z,24.53
2017-07-17T11:14:07.979Z,24.51
2017-07-17T11:15:08.627Z,24.45
2017-07-17T11:16:09.283Z,24.40
2017-07-17T11:17:09.931Z,24.48
2017-07-17T11:18:10.578Z,24.42
2017-07-17T11:19:11.227Z,24.45
2017-07-17T11:20:11.875Z,24.55
2017-07-17T11:21:12.525Z,24.47
2017-07-17T11:22:13.369Z,24.54
2017-07-17T11:23:14.019Z,24.50
2017-07-17T11:24:14.666Z,24.53
2017-07-17T11:25:15.311Z,24.58
2017-07-17T11:26:15.960Z,24.60
2017-07-17T11:27:16.609Z,24.58
2017-07-17T11:28:17.265Z,24.61
2017-07-17T11:29:17.921Z,24.61
2017-07-17T11:30:23.712Z,24.58
2017-07-17T11:31:24.403Z,24.66
2017-07-17T11:32:25.011Z,24.54
2017-07-17T11:33:25.660Z,24.55
2017-07-17T11:34:26.314Z,24.74
2017-07-17T11:35:26.967Z,24.73
2017-07-17T11:36:27.615Z,24.68
2017-07-17T11:37:28.266Z,24.65
2017-07-17T11:38:29.266Z,24.78
2017-07-17T11:40:45.742Z,24.78
2017-07-17T11:41:46.396Z,24.78
2017-07-17T11:42:47.042Z,24.76
2017-07-17T11:43:47.688Z,24.80
2017-07-17T11:44:48.334Z,24.81
2017-07-17T11:45:48.989Z,24.85
2017-07-17T11:56:09.083Z,25.13
2017-07-17T11:57:09.650Z,25.11
2017-07-17T11:58:39.446Z,25.21
2017-07-17T11:59:40.094Z,25.26
2017-07-17T12:00:40.750Z,25.22
2017-07-17T12:01:41.398Z,25.36
2017-07-17T12:02:42.048Z,25.35
2017-07-17T12:03:42.847Z,25.36
2017-07-17T12:04:43.505Z,25.31
2017-07-17T12:05:44.154Z,25.43
2017-07-17T12:06:44.819Z,25.50
2017-07-17T12:07:45.470Z,25.53
2017-07-17T12:08:46.129Z,25.63
2017-07-17T12:09:46.775Z,25.70
2017-07-17T12:10:47.427Z,25.77
2017-07-17T12:11:48.283Z,25.85
2017-07-17T12:12:48.935Z,25.85
2017-07-17T12:13:49.586Z,25.99
2017-07-17T12:14:50.238Z,26.05
2017-07-17T12:15:50.891Z,26.16
2017-07-17T12:16:51.538Z,26.21
2017-07-17T12:17:52.187Z,26.25
2017-07-17T12:18:52.790Z,26.45
2017-07-17T12:19:53.639Z,26.45
2017-07-17T12:20:54.294Z,26.55
2017-07-17T12:21:54.942Z,26.56
2017-07-17T12:22:55.599Z,26.63
2017-07-17T12:23:56.253Z,26.70
2017-07-17T12:24:56.903Z,26.81
2017-07-17T12:25:57.551Z,26.88
2017-07-17T12:26:58.207Z,26.93
2017-07-17T12:27:58.854Z,26.89
2017-07-17T12:28:59.708Z,26.95
2017-07-17T12:30:00.357Z,26.99
2017-07-17T12:31:01.057Z,27.11
2017-07-17T12:32:01.714Z,27.15
2017-07-17T12:33:02.370Z,27.26
2017-07-17T12:34:03.025Z,27.20
2017-07-17T12:35:03.673Z,27.27
2017-07-17T12:36:04.341Z,27.35
2017-07-17T12:37:05.300Z,27.42
2017-07-17T12:38:05.946Z,27.36
2017-07-17T12:39:06.604Z,27.42
2017-07-17T12:40:07.253Z,27.52
2017-07-17T12:41:07.904Z,27.52
2017-07-17T12:42:08.556Z,27.65
2017-07-17T12:43:09.219Z,27.60
2017-07-17T12:44:09.918Z,27.63
2017-07-17T12:45:10.767Z,27.63
2017-07-17T12:46:11.424Z,27.63
2017-07-17T12:47:12.077Z,27.67
2017-07-17T12:48:12.741Z,27.75
2017-07-17T12:49:13.395Z,27.75
2017-07-17T12:50:14.039Z,27.80
2017-07-17T12:51:14.694Z,27.85
2017-07-17T12:52:15.355Z,27.83
2017-07-17T12:53:16.263Z,27.86
2017-07-17T12:54:16.920Z,27.90
2017-07-17T12:55:17.571Z,27.92
2017-07-17T12:56:18.232Z,27.96
2017-07-17T12:57:18.873Z,27.92
2017-07-17T12:58:19.537Z,27.98
2017-07-17T12:59:20.186Z,28.11
2017-07-17T13:00:20.837Z,28.04
2017-07-17T13:01:21.950Z,28.08
2017-07-17T13:02:22.600Z,28.08
2017-07-17T13:03:23.253Z,28.11
2017-07-17T13:04:23.955Z,28.08
2017-07-17T13:05:24.610Z,28.07
2017-07-17T13:06:25.269Z,28.19
2017-07-17T13:07:25.919Z,28.19
2017-07-17T13:08:26.574Z,28.25
2017-07-17T13:09:27.229Z,28.23
2017-07-17T13:10:28.032Z,28.26
2017-07-17T13:11:28.690Z,28.26
2017-07-17T13:12:29.343Z,28.35